sensor_id;sensor_type;location;lat;lon;timestamp;temperature;humidity
22071;DHT22;11200;51.488;6.668;2023-09-19T00:00:01;17.00;99.90
22071;DHT22;11200;51.488;6.668;2023-09-19T00:02:27;17.00;99.90
22071;DHT22;11200;51.488;6.668;2023-09-19T00:04:52;17.00;99.90
22071;DHT22;11200;51.488;6.668;2023-09-19T00:07:19;17.00;99.90
22071;DHT22;11200;51.488;6.668;2023-09-19T00:09:44;17.00;99.90
22071;DHT22;11200;51.488;6.668;2023-09-19T00:12:10;16.90;99.90
22071;DHT22;11200;51.488;6.668;2023-09-19T00:14:35;17.10;99.90
22071;DHT22;11200;51.488;6.668;2023-09-19T00:17:02;16.90;99.90
22071;DHT22;11200;51.488;6.668;2023-09-19T00:19:34;16.90;99.90
22071;DHT22;11200;51.488;6.668;2023-09-19T00:22:00;16.90;99.90
22071;DHT22;11200;51.488;6.668;2023-09-19T00:24:26;16.80;99.90
22071;DHT22;11200;51.488;6.668;2023-09-19T00:26:54;16.80;99.90
22071;DHT22;11200;51.488;6.668;2023-09-19T00:29:21;16.80;99.90
22071;DHT22;11200;51.488;6.668;2023-09-19T00:31:46;16.80;99.90
22071;DHT22;11200;51.488;6.668;2023-09-19T00:34:12;16.70;99.90
22071;DHT22;11200;51.488;6.668;2023-09-19T00:36:38;16.80;99.90
22071;DHT22;11200;51.488;6.668;2023-09-19T00:39:08;16.70;99.90
22071;DHT22;11200;51.488;6.668;2023-09-19T00:41:34;16.70;99.90
22071;DHT22;11200;51.488;6.668;2023-09-19T00:44:02;16.70;99.90
22071;DHT22;11200;51.488;6.668;2023-09-19T00:46:31;16.60;99.90
22071;DHT22;11200;51.488;6.668;2023-09-19T00:48:58;16.60;99.90
22071;DHT22;11200;51.488;6.668;2023-09-19T00:51:25;16.60;99.90
22071;DHT22;11200;51.488;6.668;2023-09-19T00:53:52;16.60;99.90
22071;DHT22;11200;51.488;6.668;2023-09-19T00:56:18;16.60;99.90
22071;DHT22;11200;51.488;6.668;2023-09-19T00:58:45;16.50;99.90
22071;DHT22;11200;51.488;6.668;2023-09-19T01:01:12;16.50;99.90
22071;DHT22;11200;51.488;6.668;2023-09-19T01:03:40;16.50;99.90
22071;DHT22;11200;51.488;6.668;2023-09-19T01:06:06;16.50;99.90
22071;DHT22;11200;51.488;6.668;2023-09-19T01:08:34;16.50;99.90
22071;DHT22;11200;51.488;6.668;2023-09-19T01:11:16;16.50;99.90
22071;DHT22;11200;51.488;6.668;2023-09-19T01:16:36;16.40;99.90
22071;DHT22;11200;51.488;6.668;2023-09-19T01:22:10;16.40;99.90
22071;DHT22;11200;51.488;6.668;2023-09-19T01:30:22;16.30;99.90
22071;DHT22;11200;51.488;6.668;2023-09-19T01:32:51;16.30;99.90
22071;DHT22;11200;51.488;6.668;2023-09-19T01:35:18;16.30;99.90
22071;DHT22;11200;51.488;6.668;2023-09-19T01:37:44;16.30;99.90
22071;DHT22;11200;51.488;6.668;2023-09-19T01:40:12;16.30;99.90
22071;DHT22;11200;51.488;6.668;2023-09-19T01:42:51;16.20;99.90
22071;DHT22;11200;51.488;6.668;2023-09-19T01:45:46;16.20;99.90
22071;DHT22;11200;51.488;6.668;2023-09-19T01:51:01;16.20;99.90
22071;DHT22;11200;51.488;6.668;2023-09-19T01:53:41;16.10;99.90
22071;DHT22;11200;51.488;6.668;2023-09-19T01:56:16;16.10;99.90
22071;DHT22;11200;51.488;6.668;2023-09-19T01:58:49;16.10;99.90
22071;DHT22;11200;51.488;6.668;2023-09-19T02:01:19;16.20;99.90
22071;DHT22;11200;51.488;6.668;2023-09-19T02:03:46;16.10;99.90
22071;DHT22;11200;51.488;6.668;2023-09-19T02:06:17;16.10;99.90
22071;DHT22;11200;51.488;6.668;2023-09-19T02:08:43;16.10;99.90
22071;DHT22;11200;51.488;6.668;2023-09-19T02:11:11;16.00;99.90
22071;DHT22;11200;51.488;6.668;2023-09-19T02:13:37;16.00;99.90
22071;DHT22;11200;51.488;6.668;2023-09-19T02:16:03;16.00;99.90
22071;DHT22;11200;51.488;6.668;2023-09-19T02:18:30;16.00;99.90
22071;DHT22;11200;51.488;6.668;2023-09-19T02:20:56;15.90;99.90
22071;DHT22;11200;51.488;6.668;2023-09-19T02:23:24;15.90;99.90
22071;DHT22;11200;51.488;6.668;2023-09-19T02:28:23;15.90;99.90
22071;DHT22;11200;51.488;6.668;2023-09-19T02:30:49;15.90;99.90
22071;DHT22;11200;51.488;6.668;2023-09-19T02:33:16;15.80;99.90
22071;DHT22;11200;51.488;6.668;2023-09-19T02:35:43;15.80;99.90
22071;DHT22;11200;51.488;6.668;2023-09-19T02:38:08;15.80;99.90
22071;DHT22;11200;51.488;6.668;2023-09-19T02:40:37;15.80;99.90
22071;DHT22;11200;51.488;6.668;2023-09-19T02:43:03;15.80;99.90
22071;DHT22;11200;51.488;6.668;2023-09-19T02:45:29;15.80;99.90
22071;DHT22;11200;51.488;6.668;2023-09-19T02:47:55;15.70;99.90
22071;DHT22;11200;51.488;6.668;2023-09-19T02:50:21;15.70;99.90
22071;DHT22;11200;51.488;6.668;2023-09-19T02:52:47;15.70;99.90
22071;DHT22;11200;51.488;6.668;2023-09-19T02:55:15;15.70;99.90
22071;DHT22;11200;51.488;6.668;2023-09-19T02:57:48;15.70;99.90
22071;DHT22;11200;51.488;6.668;2023-09-19T03:00:16;15.60;99.90
22071;DHT22;11200;51.488;6.668;2023-09-19T03:02:42;15.70;99.90
22071;DHT22;11200;51.488;6.668;2023-09-19T03:05:08;15.70;99.90
22071;DHT22;11200;51.488;6.668;2023-09-19T03:07:37;15.60;99.90
22071;DHT22;11200;51.488;6.668;2023-09-19T03:10:05;15.60;99.90
22071;DHT22;11200;51.488;6.668;2023-09-19T03:12:31;15.60;99.90
22071;DHT22;11200;51.488;6.668;2023-09-19T03:14:57;15.60;99.90
22071;DHT22;11200;51.488;6.668;2023-09-19T03:17:22;15.60;99.90
22071;DHT22;11200;51.488;6.668;2023-09-19T03:19:48;15.50;99.90
22071;DHT22;11200;51.488;6.668;2023-09-19T03:22:14;15.50;99.90
22071;DHT22;11200;51.488;6.668;2023-09-19T03:24:40;15.50;99.90
22071;DHT22;11200;51.488;6.668;2023-09-19T03:27:09;15.50;99.90
22071;DHT22;11200;51.488;6.668;2023-09-19T03:29:35;15.50;99.90
22071;DHT22;11200;51.488;6.668;2023-09-19T03:32:01;15.50;99.90
22071;DHT22;11200;51.488;6.668;2023-09-19T03:34:27;15.50;99.90
22071;DHT22;11200;51.488;6.668;2023-09-19T03:36:52;15.40;99.90
22071;DHT22;11200;51.488;6.668;2023-09-19T03:39:18;15.40;99.90
22071;DHT22;11200;51.488;6.668;2023-09-19T03:41:44;15.40;99.90
22071;DHT22;11200;51.488;6.668;2023-09-19T03:44:10;15.40;99.90
22071;DHT22;11200;51.488;6.668;2023-09-19T03:46:36;15.40;99.90
22071;DHT22;11200;51.488;6.668;2023-09-19T03:49:02;15.30;99.90
22071;DHT22;11200;51.488;6.668;2023-09-19T03:51:28;15.70;99.90
22071;DHT22;11200;51.488;6.668;2023-09-19T03:53:53;15.30;99.90
22071;DHT22;11200;51.488;6.668;2023-09-19T03:56:19;15.30;99.90
22071;DHT22;11200;51.488;6.668;2023-09-19T03:58:45;15.20;99.90
22071;DHT22;11200;51.488;6.668;2023-09-19T04:01:10;15.30;99.90
22071;DHT22;11200;51.488;6.668;2023-09-19T04:03:36;15.30;99.90
22071;DHT22;11200;51.488;6.668;2023-09-19T04:06:19;15.30;99.90
22071;DHT22;11200;51.488;6.668;2023-09-19T04:08:45;15.00;99.90
22071;DHT22;11200;51.488;6.668;2023-09-19T04:11:21;15.30;99.90
22071;DHT22;11200;51.488;6.668;2023-09-19T04:13:46;15.30;99.90
22071;DHT22;11200;51.488;6.668;2023-09-19T04:16:12;15.20;99.90
22071;DHT22;11200;51.488;6.668;2023-09-19T04:18:38;15.20;99.90
22071;DHT22;11200;51.488;6.668;2023-09-19T04:21:05;15.20;99.90
22071;DHT22;11200;51.488;6.668;2023-09-19T04:23:31;15.10;99.90
22071;DHT22;11200;51.488;6.668;2023-09-19T04:25:57;15.10;99.90
22071;DHT22;11200;51.488;6.668;2023-09-19T04:28:28;15.10;99.90
22071;DHT22;11200;51.488;6.668;2023-09-19T04:30:54;15.10;99.90
22071;DHT22;11200;51.488;6.668;2023-09-19T04:33:20;15.10;99.90
22071;DHT22;11200;51.488;6.668;2023-09-19T04:35:49;15.10;99.90
22071;DHT22;11200;51.488;6.668;2023-09-19T04:38:15;15.10;99.90
22071;DHT22;11200;51.488;6.668;2023-09-19T04:40:41;15.10;99.90
22071;DHT22;11200;51.488;6.668;2023-09-19T04:43:06;15.10;99.90
22071;DHT22;11200;51.488;6.668;2023-09-19T04:45:33;15.10;99.90
22071;DHT22;11200;51.488;6.668;2023-09-19T04:47:58;15.10;99.90
22071;DHT22;11200;51.488;6.668;2023-09-19T04:50:24;15.10;99.90
22071;DHT22;11200;51.488;6.668;2023-09-19T04:52:53;15.00;99.90
22071;DHT22;11200;51.488;6.668;2023-09-19T04:55:19;15.10;99.90
22071;DHT22;11200;51.488;6.668;2023-09-19T04:57:49;15.00;99.90
22071;DHT22;11200;51.488;6.668;2023-09-19T05:00:20;15.00;99.90
22071;DHT22;11200;51.488;6.668;2023-09-19T05:02:55;15.00;99.90
22071;DHT22;11200;51.488;6.668;2023-09-19T05:05:24;15.00;99.90
22071;DHT22;11200;51.488;6.668;2023-09-19T05:07:51;15.00;99.90
22071;DHT22;11200;51.488;6.668;2023-09-19T05:10:19;15.00;99.90
22071;DHT22;11200;51.488;6.668;2023-09-19T05:12:45;15.00;99.90
22071;DHT22;11200;51.488;6.668;2023-09-19T05:15:13;15.00;99.90
22071;DHT22;11200;51.488;6.668;2023-09-19T05:17:40;15.00;99.90
22071;DHT22;11200;51.488;6.668;2023-09-19T05:20:06;15.00;99.90
22071;DHT22;11200;51.488;6.668;2023-09-19T05:22:39;15.00;99.90
22071;DHT22;11200;51.488;6.668;2023-09-19T05:25:06;15.00;99.90
22071;DHT22;11200;51.488;6.668;2023-09-19T05:27:32;14.90;99.90
22071;DHT22;11200;51.488;6.668;2023-09-19T05:29:59;14.90;99.90
22071;DHT22;11200;51.488;6.668;2023-09-19T05:32:24;15.00;99.90
22071;DHT22;11200;51.488;6.668;2023-09-19T05:34:50;14.90;99.90
22071;DHT22;11200;51.488;6.668;2023-09-19T05:37:19;14.90;99.90
22071;DHT22;11200;51.488;6.668;2023-09-19T05:39:44;14.90;99.90
22071;DHT22;11200;51.488;6.668;2023-09-19T05:42:10;14.90;99.90
22071;DHT22;11200;51.488;6.668;2023-09-19T05:44:36;15.00;99.90
22071;DHT22;11200;51.488;6.668;2023-09-19T05:47:03;15.00;99.90
22071;DHT22;11200;51.488;6.668;2023-09-19T05:49:28;15.00;99.90
22071;DHT22;11200;51.488;6.668;2023-09-19T05:51:54;14.90;99.90
22071;DHT22;11200;51.488;6.668;2023-09-19T05:54:21;15.00;99.90
22071;DHT22;11200;51.488;6.668;2023-09-19T05:56:47;14.90;99.90
22071;DHT22;11200;51.488;6.668;2023-09-19T05:59:14;15.00;99.90
22071;DHT22;11200;51.488;6.668;2023-09-19T06:01:42;15.00;99.90
22071;DHT22;11200;51.488;6.668;2023-09-19T06:04:07;15.00;99.90
22071;DHT22;11200;51.488;6.668;2023-09-19T06:06:33;15.00;99.90
22071;DHT22;11200;51.488;6.668;2023-09-19T06:09:07;15.10;99.90
22071;DHT22;11200;51.488;6.668;2023-09-19T06:11:34;15.10;99.90
22071;DHT22;11200;51.488;6.668;2023-09-19T06:14:04;15.10;99.90
22071;DHT22;11200;51.488;6.668;2023-09-19T06:16:30;15.30;99.90
22071;DHT22;11200;51.488;6.668;2023-09-19T06:18:57;15.10;99.90
22071;DHT22;11200;51.488;6.668;2023-09-19T06:21:26;15.10;99.90
22071;DHT22;11200;51.488;6.668;2023-09-19T06:23:52;15.10;99.90
22071;DHT22;11200;51.488;6.668;2023-09-19T06:26:18;15.10;99.90
22071;DHT22;11200;51.488;6.668;2023-09-19T06:28:44;15.20;99.90
22071;DHT22;11200;51.488;6.668;2023-09-19T06:31:10;15.10;99.90
22071;DHT22;11200;51.488;6.668;2023-09-19T06:33:36;15.30;99.90
22071;DHT22;11200;51.488;6.668;2023-09-19T06:36:06;15.20;99.90
22071;DHT22;11200;51.488;6.668;2023-09-19T06:38:32;15.20;99.90
22071;DHT22;11200;51.488;6.668;2023-09-19T06:41:01;15.20;99.90
22071;DHT22;11200;51.488;6.668;2023-09-19T06:43:31;15.30;99.90
22071;DHT22;11200;51.488;6.668;2023-09-19T06:45:56;15.20;99.90
22071;DHT22;11200;51.488;6.668;2023-09-19T06:48:23;15.20;99.90
22071;DHT22;11200;51.488;6.668;2023-09-19T06:50:53;15.30;99.90
22071;DHT22;11200;51.488;6.668;2023-09-19T06:53:20;15.30;99.90
22071;DHT22;11200;51.488;6.668;2023-09-19T06:55:51;15.30;99.90
22071;DHT22;11200;51.488;6.668;2023-09-19T06:58:17;15.30;99.90
22071;DHT22;11200;51.488;6.668;2023-09-19T07:00:42;15.30;99.90
22071;DHT22;11200;51.488;6.668;2023-09-19T07:03:10;15.40;99.90
22071;DHT22;11200;51.488;6.668;2023-09-19T07:05:39;15.40;99.90
22071;DHT22;11200;51.488;6.668;2023-09-19T07:08:06;15.40;99.90
22071;DHT22;11200;51.488;6.668;2023-09-19T07:10:34;15.40;99.90
22071;DHT22;11200;51.488;6.668;2023-09-19T07:13:06;15.50;99.90
22071;DHT22;11200;51.488;6.668;2023-09-19T07:15:36;15.50;99.90
22071;DHT22;11200;51.488;6.668;2023-09-19T07:18:05;15.50;99.90
22071;DHT22;11200;51.488;6.668;2023-09-19T07:20:31;15.60;99.90
22071;DHT22;11200;51.488;6.668;2023-09-19T07:23:01;15.50;99.90
22071;DHT22;11200;51.488;6.668;2023-09-19T07:25:30;15.60;99.90
22071;DHT22;11200;51.488;6.668;2023-09-19T07:27:57;15.60;99.90
22071;DHT22;11200;51.488;6.668;2023-09-19T07:30:26;15.70;99.90
22071;DHT22;11200;51.488;6.668;2023-09-19T07:32:52;15.70;99.90
22071;DHT22;11200;51.488;6.668;2023-09-19T07:35:18;15.70;99.90
22071;DHT22;11200;51.488;6.668;2023-09-19T07:37:47;15.70;99.90
22071;DHT22;11200;51.488;6.668;2023-09-19T07:40:17;15.70;99.90
22071;DHT22;11200;51.488;6.668;2023-09-19T07:42:42;15.80;99.90
22071;DHT22;11200;51.488;6.668;2023-09-19T07:45:11;15.80;99.90
22071;DHT22;11200;51.488;6.668;2023-09-19T07:47:50;15.70;99.90
22071;DHT22;11200;51.488;6.668;2023-09-19T07:50:18;15.70;99.90
22071;DHT22;11200;51.488;6.668;2023-09-19T07:52:47;15.70;99.90
22071;DHT22;11200;51.488;6.668;2023-09-19T07:55:13;15.80;99.90
22071;DHT22;11200;51.488;6.668;2023-09-19T07:57:42;15.90;99.90
22071;DHT22;11200;51.488;6.668;2023-09-19T08:00:09;15.90;99.90
22071;DHT22;11200;51.488;6.668;2023-09-19T08:02:39;15.90;99.90
22071;DHT22;11200;51.488;6.668;2023-09-19T08:05:06;15.90;99.90
22071;DHT22;11200;51.488;6.668;2023-09-19T08:07:32;16.00;99.90
22071;DHT22;11200;51.488;6.668;2023-09-19T08:09:58;16.00;99.90
22071;DHT22;11200;51.488;6.668;2023-09-19T08:12:24;16.10;99.90
22071;DHT22;11200;51.488;6.668;2023-09-19T08:14:53;16.10;99.90
22071;DHT22;11200;51.488;6.668;2023-09-19T08:17:18;16.10;99.90
22071;DHT22;11200;51.488;6.668;2023-09-19T08:19:45;16.20;99.90
22071;DHT22;11200;51.488;6.668;2023-09-19T08:22:11;16.20;99.90
22071;DHT22;11200;51.488;6.668;2023-09-19T08:24:37;16.30;99.90
22071;DHT22;11200;51.488;6.668;2023-09-19T08:27:05;16.40;99.90
22071;DHT22;11200;51.488;6.668;2023-09-19T08:29:34;16.40;99.90
22071;DHT22;11200;51.488;6.668;2023-09-19T08:32:00;16.50;99.90
22071;DHT22;11200;51.488;6.668;2023-09-19T08:34:26;16.60;99.90
22071;DHT22;11200;51.488;6.668;2023-09-19T08:36:52;16.70;99.90
22071;DHT22;11200;51.488;6.668;2023-09-19T08:39:24;16.70;99.90
22071;DHT22;11200;51.488;6.668;2023-09-19T08:41:57;16.80;99.90
22071;DHT22;11200;51.488;6.668;2023-09-19T08:44:24;16.90;99.90
22071;DHT22;11200;51.488;6.668;2023-09-19T08:46:54;17.00;99.90
22071;DHT22;11200;51.488;6.668;2023-09-19T08:49:45;17.10;99.90
22071;DHT22;11200;51.488;6.668;2023-09-19T08:52:40;17.30;99.90
22071;DHT22;11200;51.488;6.668;2023-09-19T08:55:06;17.40;99.90
22071;DHT22;11200;51.488;6.668;2023-09-19T08:57:36;17.50;99.90
22071;DHT22;11200;51.488;6.668;2023-09-19T09:00:07;17.60;99.90
22071;DHT22;11200;51.488;6.668;2023-09-19T09:02:38;17.70;99.90
22071;DHT22;11200;51.488;6.668;2023-09-19T09:05:08;17.80;99.90
22071;DHT22;11200;51.488;6.668;2023-09-19T09:07:36;17.90;99.90
22071;DHT22;11200;51.488;6.668;2023-09-19T09:10:05;17.90;99.90
22071;DHT22;11200;51.488;6.668;2023-09-19T09:12:33;18.10;99.90
22071;DHT22;11200;51.488;6.668;2023-09-19T09:15:02;18.20;99.90
22071;DHT22;11200;51.488;6.668;2023-09-19T09:17:29;18.30;99.90
22071;DHT22;11200;51.488;6.668;2023-09-19T09:19:55;18.30;99.90
22071;DHT22;11200;51.488;6.668;2023-09-19T09:22:21;18.50;99.90
22071;DHT22;11200;51.488;6.668;2023-09-19T09:24:59;18.50;99.90
22071;DHT22;11200;51.488;6.668;2023-09-19T09:27:30;18.60;99.90
22071;DHT22;11200;51.488;6.668;2023-09-19T09:29:58;18.70;99.90
22071;DHT22;11200;51.488;6.668;2023-09-19T09:35:15;18.80;99.90
22071;DHT22;11200;51.488;6.668;2023-09-19T09:37:46;19.00;99.90
22071;DHT22;11200;51.488;6.668;2023-09-19T09:40:12;19.00;99.90
22071;DHT22;11200;51.488;6.668;2023-09-19T09:42:41;19.10;99.90
22071;DHT22;11200;51.488;6.668;2023-09-19T09:45:27;19.30;99.90
22071;DHT22;11200;51.488;6.668;2023-09-19T09:47:59;19.30;99.90
22071;DHT22;11200;51.488;6.668;2023-09-19T09:50:34;19.50;99.90
22071;DHT22;11200;51.488;6.668;2023-09-19T09:53:28;19.50;99.90
22071;DHT22;11200;51.488;6.668;2023-09-19T09:56:08;19.70;99.90
22071;DHT22;11200;51.488;6.668;2023-09-19T10:01:14;19.90;99.90
22071;DHT22;11200;51.488;6.668;2023-09-19T10:03:48;20.20;99.90
22071;DHT22;11200;51.488;6.668;2023-09-19T10:06:16;19.90;99.90
22071;DHT22;11200;51.488;6.668;2023-09-19T10:09:03;20.30;99.90
22071;DHT22;11200;51.488;6.668;2023-09-19T10:11:46;20.50;99.90
22071;DHT22;11200;51.488;6.668;2023-09-19T10:14:16;20.60;99.90
22071;DHT22;11200;51.488;6.668;2023-09-19T10:16:47;20.80;99.90
22071;DHT22;11200;51.488;6.668;2023-09-19T10:19:37;21.00;99.90
22071;DHT22;11200;51.488;6.668;2023-09-19T10:22:05;21.10;99.90
22071;DHT22;11200;51.488;6.668;2023-09-19T10:24:35;21.20;99.90
22071;DHT22;11200;51.488;6.668;2023-09-19T10:27:04;21.30;99.90
22071;DHT22;11200;51.488;6.668;2023-09-19T10:29:35;21.40;99.90
22071;DHT22;11200;51.488;6.668;2023-09-19T10:32:03;21.50;99.90
22071;DHT22;11200;51.488;6.668;2023-09-19T10:34:35;21.60;99.90
22071;DHT22;11200;51.488;6.668;2023-09-19T10:37:04;21.70;99.90
22071;DHT22;11200;51.488;6.668;2023-09-19T10:39:32;21.80;99.90
22071;DHT22;11200;51.488;6.668;2023-09-19T10:42:02;21.90;99.90
22071;DHT22;11200;51.488;6.668;2023-09-19T10:44:35;21.90;99.90
22071;DHT22;11200;51.488;6.668;2023-09-19T10:47:03;22.30;99.90
22071;DHT22;11200;51.488;6.668;2023-09-19T10:49:31;22.10;99.90
22071;DHT22;11200;51.488;6.668;2023-09-19T10:51:59;22.20;99.90
22071;DHT22;11200;51.488;6.668;2023-09-19T10:54:29;22.20;99.90
22071;DHT22;11200;51.488;6.668;2023-09-19T10:56:56;22.30;99.90
22071;DHT22;11200;51.488;6.668;2023-09-19T10:59:24;22.30;99.90
22071;DHT22;11200;51.488;6.668;2023-09-19T11:01:56;22.80;99.90
22071;DHT22;11200;51.488;6.668;2023-09-19T11:04:30;22.40;99.90
22071;DHT22;11200;51.488;6.668;2023-09-19T11:07:08;22.40;99.90
22071;DHT22;11200;51.488;6.668;2023-09-19T11:09:55;22.30;99.90
22071;DHT22;11200;51.488;6.668;2023-09-19T11:26:41;22.50;99.90
22071;DHT22;11200;51.488;6.668;2023-09-19T11:29:26;22.50;99.90
22071;DHT22;11200;51.488;6.668;2023-09-19T11:31:52;22.60;99.90
22071;DHT22;11200;51.488;6.668;2023-09-19T11:40:04;22.70;99.90
22071;DHT22;11200;51.488;6.668;2023-09-19T11:42:48;22.70;99.90
22071;DHT22;11200;51.488;6.668;2023-09-19T11:48:23;22.80;99.90
22071;DHT22;11200;51.488;6.668;2023-09-19T11:50:51;22.90;99.90
22071;DHT22;11200;51.488;6.668;2023-09-19T11:53:18;22.90;99.90
22071;DHT22;11200;51.488;6.668;2023-09-19T11:55:45;23.00;99.90
22071;DHT22;11200;51.488;6.668;2023-09-19T11:58:18;23.00;99.90
22071;DHT22;11200;51.488;6.668;2023-09-19T12:00:45;23.00;99.90
22071;DHT22;11200;51.488;6.668;2023-09-19T12:03:12;23.00;99.90
22071;DHT22;11200;51.488;6.668;2023-09-19T12:05:39;23.10;99.90
22071;DHT22;11200;51.488;6.668;2023-09-19T12:08:07;23.10;99.90
22071;DHT22;11200;51.488;6.668;2023-09-19T12:10:48;23.10;99.90
22071;DHT22;11200;51.488;6.668;2023-09-19T12:13:21;23.10;99.90
22071;DHT22;11200;51.488;6.668;2023-09-19T12:15:46;23.20;99.90
22071;DHT22;11200;51.488;6.668;2023-09-19T12:18:31;23.20;99.90
22071;DHT22;11200;51.488;6.668;2023-09-19T12:20:58;23.20;99.90
22071;DHT22;11200;51.488;6.668;2023-09-19T12:23:25;23.30;99.90
22071;DHT22;11200;51.488;6.668;2023-09-19T12:25:51;23.30;99.90
22071;DHT22;11200;51.488;6.668;2023-09-19T12:28:19;23.30;99.90
22071;DHT22;11200;51.488;6.668;2023-09-19T12:30:47;23.30;99.90
22071;DHT22;11200;51.488;6.668;2023-09-19T12:33:20;23.30;99.90
22071;DHT22;11200;51.488;6.668;2023-09-19T12:35:47;23.40;99.90
22071;DHT22;11200;51.488;6.668;2023-09-19T12:38:28;23.40;99.90
22071;DHT22;11200;51.488;6.668;2023-09-19T12:40:57;23.50;99.90
22071;DHT22;11200;51.488;6.668;2023-09-19T12:43:25;23.40;99.90
22071;DHT22;11200;51.488;6.668;2023-09-19T12:45:52;23.40;99.90
22071;DHT22;11200;51.488;6.668;2023-09-19T12:48:25;23.40;99.90
22071;DHT22;11200;51.488;6.668;2023-09-19T12:51:04;23.50;99.90
22071;DHT22;11200;51.488;6.668;2023-09-19T12:53:36;23.40;99.90
22071;DHT22;11200;51.488;6.668;2023-09-19T12:56:09;23.50;99.90
22071;DHT22;11200;51.488;6.668;2023-09-19T12:58:51;23.50;99.90
22071;DHT22;11200;51.488;6.668;2023-09-19T13:01:19;23.40;99.90
22071;DHT22;11200;51.488;6.668;2023-09-19T13:06:56;23.30;99.90
22071;DHT22;11200;51.488;6.668;2023-09-19T13:09:37;23.30;99.90
22071;DHT22;11200;51.488;6.668;2023-09-19T13:12:37;23.30;99.90
22071;DHT22;11200;51.488;6.668;2023-09-19T13:15:17;23.20;99.90
22071;DHT22;11200;51.488;6.668;2023-09-19T13:17:50;23.60;99.90
22071;DHT22;11200;51.488;6.668;2023-09-19T13:20:24;23.20;99.90
22071;DHT22;11200;51.488;6.668;2023-09-19T13:22:54;23.00;99.90
22071;DHT22;11200;51.488;6.668;2023-09-19T13:25:26;23.00;99.90
22071;DHT22;11200;51.488;6.668;2023-09-19T13:27:59;23.30;99.90
22071;DHT22;11200;51.488;6.668;2023-09-19T13:30:28;22.80;99.90
22071;DHT22;11200;51.488;6.668;2023-09-19T13:33:09;22.80;99.90
22071;DHT22;11200;51.488;6.668;2023-09-19T13:35:36;22.80;99.90
22071;DHT22;11200;51.488;6.668;2023-09-19T13:38:06;22.70;99.90
22071;DHT22;11200;51.488;6.668;2023-09-19T13:40:35;22.70;99.90
22071;DHT22;11200;51.488;6.668;2023-09-19T13:43:01;22.70;99.90
22071;DHT22;11200;51.488;6.668;2023-09-19T13:45:28;22.70;99.90
22071;DHT22;11200;51.488;6.668;2023-09-19T13:47:56;22.60;99.90
22071;DHT22;11200;51.488;6.668;2023-09-19T13:50:21;22.60;99.90
22071;DHT22;11200;51.488;6.668;2023-09-19T13:52:50;22.50;99.90
22071;DHT22;11200;51.488;6.668;2023-09-19T13:55:24;22.50;99.90
22071;DHT22;11200;51.488;6.668;2023-09-19T13:57:51;22.50;99.90
22071;DHT22;11200;51.488;6.668;2023-09-19T14:00:20;22.30;99.90
22071;DHT22;11200;51.488;6.668;2023-09-19T14:02:46;22.40;99.90
22071;DHT22;11200;51.488;6.668;2023-09-19T14:05:12;22.40;99.90
22071;DHT22;11200;51.488;6.668;2023-09-19T14:07:42;22.40;99.90
22071;DHT22;11200;51.488;6.668;2023-09-19T14:10:08;22.30;99.90
22071;DHT22;11200;51.488;6.668;2023-09-19T14:12:36;22.30;99.90
22071;DHT22;11200;51.488;6.668;2023-09-19T14:15:03;22.20;99.90
22071;DHT22;11200;51.488;6.668;2023-09-19T14:17:29;22.20;99.90
22071;DHT22;11200;51.488;6.668;2023-09-19T14:19:54;22.10;99.90
22071;DHT22;11200;51.488;6.668;2023-09-19T14:22:20;22.10;99.90
22071;DHT22;11200;51.488;6.668;2023-09-19T14:24:47;22.00;99.90
22071;DHT22;11200;51.488;6.668;2023-09-19T14:27:13;21.90;99.90
22071;DHT22;11200;51.488;6.668;2023-09-19T14:29:39;21.90;99.90
22071;DHT22;11200;51.488;6.668;2023-09-19T14:32:05;21.80;99.90
22071;DHT22;11200;51.488;6.668;2023-09-19T14:34:32;21.80;99.90
22071;DHT22;11200;51.488;6.668;2023-09-19T14:37:00;21.80;99.90
22071;DHT22;11200;51.488;6.668;2023-09-19T14:39:25;21.70;99.90
22071;DHT22;11200;51.488;6.668;2023-09-19T14:41:52;21.70;99.90
22071;DHT22;11200;51.488;6.668;2023-09-19T14:44:18;21.60;99.90
22071;DHT22;11200;51.488;6.668;2023-09-19T14:46:45;21.50;99.90
22071;DHT22;11200;51.488;6.668;2023-09-19T14:49:11;21.50;99.90
22071;DHT22;11200;51.488;6.668;2023-09-19T14:51:37;21.50;99.90
22071;DHT22;11200;51.488;6.668;2023-09-19T14:54:05;21.40;99.90
22071;DHT22;11200;51.488;6.668;2023-09-19T14:56:32;21.40;99.90
22071;DHT22;11200;51.488;6.668;2023-09-19T14:58:58;21.40;99.90
22071;DHT22;11200;51.488;6.668;2023-09-19T15:01:24;21.30;99.90
22071;DHT22;11200;51.488;6.668;2023-09-19T15:03:49;21.30;99.90
22071;DHT22;11200;51.488;6.668;2023-09-19T15:06:16;21.20;99.90
22071;DHT22;11200;51.488;6.668;2023-09-19T15:08:44;21.20;99.90
22071;DHT22;11200;51.488;6.668;2023-09-19T15:11:16;21.10;99.90
22071;DHT22;11200;51.488;6.668;2023-09-19T15:13:43;21.10;99.90
22071;DHT22;11200;51.488;6.668;2023-09-19T15:16:09;21.10;99.90
22071;DHT22;11200;51.488;6.668;2023-09-19T15:18:40;21.00;99.90
22071;DHT22;11200;51.488;6.668;2023-09-19T15:21:08;20.90;99.90
22071;DHT22;11200;51.488;6.668;2023-09-19T15:23:35;20.90;99.90
22071;DHT22;11200;51.488;6.668;2023-09-19T15:26:03;20.90;99.90
22071;DHT22;11200;51.488;6.668;2023-09-19T15:28:42;20.90;99.90
22071;DHT22;11200;51.488;6.668;2023-09-19T15:31:14;21.00;99.90
22071;DHT22;11200;51.488;6.668;2023-09-19T15:33:40;20.80;99.90
22071;DHT22;11200;51.488;6.668;2023-09-19T15:39:00;20.70;99.90
22071;DHT22;11200;51.488;6.668;2023-09-19T15:41:31;20.70;99.90
22071;DHT22;11200;51.488;6.668;2023-09-19T15:43:58;20.70;99.90
22071;DHT22;11200;51.488;6.668;2023-09-19T15:46:32;20.70;99.90
22071;DHT22;11200;51.488;6.668;2023-09-19T15:49:01;20.60;99.90
22071;DHT22;11200;51.488;6.668;2023-09-19T15:51:27;20.60;99.90
22071;DHT22;11200;51.488;6.668;2023-09-19T15:53:54;20.60;99.90
22071;DHT22;11200;51.488;6.668;2023-09-19T15:56:22;20.60;99.90
22071;DHT22;11200;51.488;6.668;2023-09-19T15:58:52;20.50;99.90
22071;DHT22;11200;51.488;6.668;2023-09-19T16:01:21;20.50;99.90
22071;DHT22;11200;51.488;6.668;2023-09-19T16:03:48;20.60;99.90
22071;DHT22;11200;51.488;6.668;2023-09-19T16:06:22;20.50;99.90
22071;DHT22;11200;51.488;6.668;2023-09-19T16:08:50;20.40;99.90
22071;DHT22;11200;51.488;6.668;2023-09-19T16:11:19;20.50;99.90
22071;DHT22;11200;51.488;6.668;2023-09-19T16:13:49;20.30;99.90
22071;DHT22;11200;51.488;6.668;2023-09-19T16:16:16;20.40;99.90
22071;DHT22;11200;51.488;6.668;2023-09-19T16:18:50;20.30;99.90
22071;DHT22;11200;51.488;6.668;2023-09-19T16:21:28;20.30;99.90
22071;DHT22;11200;51.488;6.668;2023-09-19T16:23:55;20.30;99.90
22071;DHT22;11200;51.488;6.668;2023-09-19T16:26:22;20.20;99.90
22071;DHT22;11200;51.488;6.668;2023-09-19T16:28:50;20.20;99.90
22071;DHT22;11200;51.488;6.668;2023-09-19T16:31:16;20.20;99.90